createdAt,value
2022-11-17T00:02:19.138Z,7.90
2022-11-17T00:04:45.878Z,7.90
2022-11-17T00:07:12.716Z,8.00
2022-11-17T00:09:39.418Z,8.00
2022-11-17T00:12:33.112Z,8.00
2022-11-17T00:14:59.997Z,8.10
2022-11-17T00:17:26.729Z,8.00
2022-11-17T00:20:11.999Z,8.10
2022-11-17T00:22:38.625Z,8.10
2022-11-17T00:25:05.404Z,8.10
2022-11-17T00:27:32.044Z,8.00
2022-11-17T00:29:58.702Z,8.00
2022-11-17T00:32:44.264Z,8.00
2022-11-17T00:35:10.871Z,8.00
2022-11-17T00:37:37.995Z,8.00
2022-11-17T00:40:07.716Z,8.00
2022-11-17T00:42:34.392Z,8.00
2022-11-17T00:45:01.048Z,8.00
2022-11-17T00:47:27.692Z,8.00
2022-11-17T00:49:54.466Z,8.00
2022-11-17T00:52:21.118Z,7.90
2022-11-17T00:54:47.781Z,7.20
2022-11-17T00:57:14.423Z,7.90
2022-11-17T00:59:41.046Z,7.90
2022-11-17T01:02:07.718Z,7.90
2022-11-17T01:04:34.389Z,7.90
2022-11-17T01:07:01.075Z,7.90
2022-11-17T01:09:27.830Z,7.90
2022-11-17T01:11:54.518Z,7.80
2022-11-17T01:14:22.051Z,7.80
2022-11-17T01:16:48.692Z,7.80
2022-11-17T01:19:15.533Z,7.70
2022-11-17T01:21:42.191Z,7.70
2022-11-17T01:24:09.482Z,7.70
2022-11-17T01:26:36.358Z,7.70
2022-11-17T01:29:03.296Z,7.70
2022-11-17T01:31:30.832Z,7.70
2022-11-17T01:33:57.642Z,7.70
2022-11-17T01:36:25.953Z,7.80
2022-11-17T01:38:52.550Z,7.80
2022-11-17T01:41:20.414Z,7.80
2022-11-17T01:43:51.042Z,7.80
2022-11-17T01:46:23.665Z,7.80
2022-11-17T01:48:50.316Z,7.80
2022-11-17T01:51:16.967Z,7.80
2022-11-17T01:53:45.180Z,7.70
2022-11-17T01:56:12.879Z,7.70
2022-11-17T01:58:41.892Z,7.70
2022-11-17T02:01:08.552Z,7.60
2022-11-17T02:03:35.488Z,7.60
2022-11-17T02:06:09.006Z,7.50
2022-11-17T02:08:36.647Z,7.50
2022-11-17T02:11:03.921Z,7.50
2022-11-17T02:13:30.525Z,7.50
2022-11-17T02:15:57.159Z,7.50
2022-11-17T02:18:23.834Z,7.50
2022-11-17T02:20:51.112Z,7.60
2022-11-17T02:23:23.515Z,7.50
2022-11-17T02:26:09.011Z,7.60
2022-11-17T02:28:41.787Z,7.50
2022-11-17T02:31:11.387Z,7.60
2022-11-17T02:33:55.609Z,7.60
2022-11-17T02:36:33.206Z,7.50
2022-11-17T02:39:10.510Z,7.50
2022-11-17T02:41:45.550Z,7.50
2022-11-17T02:44:15.323Z,7.50
2022-11-17T02:47:03.092Z,7.50
2022-11-17T02:49:31.496Z,7.60
2022-11-17T02:51:58.322Z,7.60
2022-11-17T02:54:25.381Z,7.60
2022-11-17T02:56:52.048Z,7.60
2022-11-17T02:59:19.801Z,7.60
2022-11-17T03:01:52.781Z,7.60
2022-11-17T03:04:22.524Z,7.60
2022-11-17T03:06:55.282Z,7.60
2022-11-17T03:09:24.471Z,7.60
2022-11-17T03:11:58.342Z,7.60
2022-11-17T03:14:33.611Z,7.60
2022-11-17T03:17:26.761Z,7.70
2022-11-17T03:19:55.957Z,7.70
2022-11-17T03:22:23.351Z,7.70
2022-11-17T03:24:57.532Z,7.80
2022-11-17T03:27:25.350Z,7.80
2022-11-17T03:29:53.007Z,7.80
2022-11-17T03:32:19.655Z,7.80
2022-11-17T03:34:49.879Z,7.90
2022-11-17T03:37:17.246Z,7.80
2022-11-17T03:39:44.995Z,7.90
2022-11-17T03:42:22.171Z,8.00
2022-11-17T03:44:53.871Z,7.90
2022-11-17T03:47:20.827Z,7.90
2022-11-17T03:49:51.834Z,8.00
2022-11-17T03:52:18.698Z,8.10
2022-11-17T03:54:45.315Z,8.10
2022-11-17T03:57:11.931Z,8.10
2022-11-17T03:59:44.966Z,8.10
2022-11-17T04:02:16.831Z,8.10
2022-11-17T04:05:02.238Z,8.10
2022-11-17T04:07:28.949Z,8.00
2022-11-17T04:09:55.597Z,8.00
2022-11-17T04:12:41.002Z,8.00
2022-11-17T04:15:26.345Z,7.90
2022-11-17T04:17:53.102Z,7.90
2022-11-17T04:20:19.711Z,7.80
2022-11-17T04:22:46.346Z,7.70
2022-11-17T04:25:32.927Z,7.70
2022-11-17T04:28:18.183Z,7.80
2022-11-17T04:30:44.789Z,7.80
2022-11-17T04:33:11.429Z,7.60
2022-11-17T04:35:38.053Z,7.60
2022-11-17T04:38:04.671Z,7.60
2022-11-17T04:40:51.257Z,7.60
2022-11-17T04:43:17.915Z,7.50
2022-11-17T04:45:44.567Z,7.50
2022-11-17T04:48:11.236Z,7.50
2022-11-17T04:50:37.880Z,7.50
2022-11-17T04:53:04.490Z,7.40
2022-11-17T04:55:32.190Z,7.40
2022-11-17T04:57:58.833Z,7.50
2022-11-17T05:00:25.475Z,7.40
2022-11-17T05:02:52.094Z,7.40
2022-11-17T05:05:18.706Z,7.40
2022-11-17T05:07:45.595Z,7.30
2022-11-17T05:10:13.895Z,7.20
2022-11-17T05:12:59.274Z,7.20
2022-11-17T05:15:45.864Z,7.20
2022-11-17T05:18:12.960Z,7.20
2022-11-17T05:20:39.579Z,7.20
2022-11-17T05:23:25.094Z,7.20
2022-11-17T05:25:53.418Z,7.10
2022-11-17T05:28:20.094Z,7.10
2022-11-17T05:30:47.015Z,7.00
2022-11-17T05:33:13.634Z,7.00
2022-11-17T05:35:40.254Z,7.00
2022-11-17T05:38:06.895Z,7.00
2022-11-17T05:40:33.530Z,7.00
2022-11-17T05:43:00.178Z,7.00
2022-11-17T05:45:26.810Z,7.00
2022-11-17T05:47:53.419Z,7.00
2022-11-17T05:50:20.109Z,7.00
2022-11-17T05:52:47.035Z,7.00
2022-11-17T05:55:13.688Z,7.00
2022-11-17T05:57:40.333Z,7.00
2022-11-17T06:00:07.401Z,7.00
2022-11-17T06:02:43.785Z,7.00
2022-11-17T06:05:13.256Z,6.90
2022-11-17T06:07:42.353Z,6.90
2022-11-17T06:10:09.279Z,6.90
2022-11-17T06:12:36.005Z,6.80
2022-11-17T06:15:02.687Z,6.80
2022-11-17T06:17:40.020Z,6.80
2022-11-17T06:20:12.459Z,6.70
2022-11-17T06:22:41.801Z,6.80
2022-11-17T06:25:10.837Z,6.80
2022-11-17T06:27:37.727Z,6.80
2022-11-17T06:30:04.999Z,6.80
2022-11-17T06:32:32.335Z,6.80
2022-11-17T06:34:59.015Z,6.80
2022-11-17T06:37:25.668Z,6.70
2022-11-17T06:39:52.669Z,6.80
2022-11-17T06:42:19.291Z,6.80
2022-11-17T06:44:45.894Z,6.70
2022-11-17T06:47:12.533Z,6.70
2022-11-17T06:49:39.252Z,6.70
2022-11-17T06:52:05.857Z,6.80
2022-11-17T06:54:32.488Z,6.90
2022-11-17T06:56:59.158Z,7.00
2022-11-17T06:59:25.809Z,7.10
2022-11-17T07:01:52.506Z,7.00
2022-11-17T07:04:19.140Z,7.00
2022-11-17T07:06:45.774Z,6.60
2022-11-17T07:09:12.432Z,7.10
2022-11-17T07:11:39.079Z,7.10
2022-11-17T07:14:05.714Z,7.20
2022-11-17T07:16:32.706Z,7.40
2022-11-17T07:18:59.534Z,7.40
2022-11-17T07:21:26.217Z,7.40
2022-11-17T07:23:52.862Z,7.50
2022-11-17T07:26:19.533Z,7.50
2022-11-17T07:28:46.228Z,7.50
2022-11-17T07:31:12.881Z,7.70
2022-11-17T07:33:39.558Z,7.80
2022-11-17T07:36:07.065Z,7.80
2022-11-17T07:38:34.539Z,7.80
2022-11-17T07:41:01.608Z,7.80
2022-11-17T07:43:28.280Z,7.80
2022-11-17T07:45:55.073Z,7.90
2022-11-17T07:48:21.702Z,8.10
2022-11-17T07:50:48.466Z,8.30
2022-11-17T07:53:15.335Z,8.60
2022-11-17T07:55:41.943Z,9.10
2022-11-17T07:58:08.608Z,9.70
2022-11-17T08:00:35.361Z,10.40
2022-11-17T08:03:03.712Z,11.10
2022-11-17T08:05:39.953Z,11.50
2022-11-17T08:08:09.998Z,11.90
2022-11-17T08:10:36.768Z,12.30
2022-11-17T08:13:03.516Z,12.60
2022-11-17T08:15:30.435Z,12.60
2022-11-17T08:17:58.046Z,12.50
2022-11-17T08:20:24.866Z,12.30
2022-11-17T08:22:52.132Z,12.00
2022-11-17T08:25:19.596Z,11.60
2022-11-17T08:27:46.490Z,11.40
2022-11-17T08:30:13.550Z,11.20
2022-11-17T08:32:46.463Z,11.10
2022-11-17T08:35:13.190Z,11.10
2022-11-17T08:37:43.032Z,11.10
2022-11-17T08:40:10.192Z,11.00
2022-11-17T08:42:37.282Z,10.80
2022-11-17T08:45:04.603Z,10.60
2022-11-17T08:47:31.528Z,10.40
2022-11-17T08:49:58.192Z,10.20
2022-11-17T08:52:24.828Z,10.10
2022-11-17T08:54:52.477Z,10.10
2022-11-17T08:57:21.970Z,9.70
2022-11-17T08:59:48.797Z,9.60
2022-11-17T09:02:15.474Z,9.60
2022-11-17T09:04:42.129Z,9.40
2022-11-17T09:07:08.857Z,9.40
2022-11-17T09:09:35.621Z,9.30
2022-11-17T09:12:02.290Z,9.20
2022-11-17T09:14:29.230Z,9.20
2022-11-17T09:16:55.886Z,9.20
2022-11-17T09:19:22.507Z,9.00
2022-11-17T09:21:49.198Z,9.00
2022-11-17T09:24:15.897Z,9.10
2022-11-17T09:26:43.041Z,9.10
2022-11-17T09:29:09.857Z,9.00
2022-11-17T09:31:36.683Z,8.90
2022-11-17T09:34:05.653Z,9.00
2022-11-17T09:36:32.860Z,9.00
2022-11-17T09:38:59.526Z,9.00
2022-11-17T09:41:27.384Z,9.00
2022-11-17T09:43:57.046Z,9.00
2022-11-17T09:46:28.535Z,9.10
2022-11-17T09:49:21.380Z,9.00
2022-11-17T09:51:48.423Z,8.90
2022-11-17T09:54:22.100Z,8.80
2022-11-17T09:56:48.760Z,8.80
2022-11-17T09:59:15.867Z,8.60
2022-11-17T10:01:42.610Z,8.80
2022-11-17T10:04:10.596Z,8.70
2022-11-17T10:06:37.244Z,8.60
2022-11-17T10:09:14.582Z,8.50
2022-11-17T10:11:41.605Z,8.50
2022-11-17T10:14:08.258Z,8.50
2022-11-17T10:16:35.369Z,8.40
2022-11-17T10:19:02.812Z,8.50
2022-11-17T10:21:30.425Z,8.50
2022-11-17T10:23:58.023Z,8.50
2022-11-17T10:26:24.739Z,8.50
2022-11-17T10:29:08.497Z,8.40
2022-11-17T10:31:42.915Z,8.30
2022-11-17T10:34:13.006Z,8.30
2022-11-17T10:36:46.608Z,8.30
2022-11-17T10:39:32.174Z,8.30
2022-11-17T10:41:58.806Z,8.40
2022-11-17T10:44:25.824Z,8.40
2022-11-17T10:47:00.526Z,8.30
2022-11-17T10:49:29.808Z,8.30
2022-11-17T10:52:05.833Z,8.20
2022-11-17T10:54:32.462Z,8.20
2022-11-17T10:56:59.143Z,8.20
2022-11-17T10:59:30.738Z,8.10
2022-11-17T11:01:57.658Z,8.10
2022-11-17T11:04:28.395Z,8.10
2022-11-17T11:07:07.457Z,8.10
2022-11-17T11:09:34.910Z,8.10
2022-11-17T11:12:02.124Z,8.10
2022-11-17T11:14:28.786Z,8.10
2022-11-17T11:16:57.872Z,8.10
2022-11-17T11:19:25.329Z,8.10
2022-11-17T11:22:02.291Z,8.10
2022-11-17T11:24:49.054Z,8.10
2022-11-17T11:27:21.438Z,8.10
2022-11-17T11:30:08.366Z,8.10
2022-11-17T11:32:54.116Z,8.20
2022-11-17T11:35:21.809Z,8.10
2022-11-17T11:37:48.438Z,8.20
2022-11-17T11:40:15.800Z,8.20
2022-11-17T11:42:42.394Z,8.30
2022-11-17T11:45:19.384Z,8.30
2022-11-17T11:47:46.074Z,8.30
2022-11-17T11:50:16.425Z,8.30
2022-11-17T11:52:45.528Z,8.30
2022-11-17T11:55:15.232Z,8.30
2022-11-17T11:57:43.121Z,8.20
2022-11-17T12:00:16.742Z,8.30
2022-11-17T12:02:46.527Z,8.30
2022-11-17T12:05:16.941Z,8.30
2022-11-17T12:07:46.121Z,8.40
2022-11-17T12:10:18.822Z,8.50
2022-11-17T12:12:45.753Z,8.50
2022-11-17T12:15:18.482Z,8.60
2022-11-17T12:18:01.687Z,8.50
2022-11-17T12:20:31.490Z,8.30
2022-11-17T12:22:59.836Z,8.20
2022-11-17T12:25:30.329Z,8.10
2022-11-17T12:27:56.975Z,8.00
2022-11-17T12:30:33.006Z,8.00
2022-11-17T12:33:00.155Z,8.00
2022-11-17T12:35:33.120Z,7.90
2022-11-17T12:38:18.817Z,7.90
2022-11-17T12:40:48.906Z,7.90
2022-11-17T12:43:15.638Z,7.90
2022-11-17T12:45:51.531Z,7.90
2022-11-17T12:48:33.537Z,7.80
2022-11-17T12:51:12.226Z,7.90
2022-11-17T12:53:57.716Z,7.90
2022-11-17T12:56:48.119Z,7.90
2022-11-17T12:59:26.759Z,7.90
2022-11-17T13:01:59.429Z,7.90
2022-11-17T13:04:37.407Z,7.80
2022-11-17T13:07:05.388Z,7.80
2022-11-17T13:09:33.467Z,7.80
2022-11-17T13:12:04.486Z,7.60
2022-11-17T13:14:32.199Z,7.70
2022-11-17T13:17:00.147Z,7.80
2022-11-17T13:19:33.003Z,7.70
2022-11-17T13:22:03.667Z,7.70
2022-11-17T13:24:39.567Z,7.60
2022-11-17T13:27:07.536Z,7.60
2022-11-17T13:29:34.424Z,7.50
2022-11-17T13:32:17.509Z,7.50
2022-11-17T13:34:48.645Z,7.30
2022-11-17T13:37:16.436Z,7.40
2022-11-17T13:39:53.426Z,7.30
2022-11-17T13:42:20.036Z,7.40
2022-11-17T13:44:46.647Z,7.30
2022-11-17T13:47:20.891Z,7.40
2022-11-17T13:49:47.886Z,7.40
2022-11-17T13:52:28.622Z,7.40
2022-11-17T13:54:57.684Z,7.50
2022-11-17T13:57:25.664Z,7.60
2022-11-17T13:59:52.325Z,7.70
2022-11-17T14:02:22.753Z,7.80
2022-11-17T14:05:08.220Z,7.70
2022-11-17T14:07:35.890Z,7.70
2022-11-17T14:10:14.886Z,7.70
2022-11-17T14:12:42.611Z,7.80
2022-11-17T14:15:20.817Z,7.70
2022-11-17T14:17:50.855Z,7.70
2022-11-17T14:20:23.785Z,7.80
2022-11-17T14:23:08.849Z,7.80
2022-11-17T14:25:36.238Z,7.80
2022-11-17T14:28:02.885Z,7.80
2022-11-17T14:30:29.605Z,7.80
2022-11-17T14:33:03.612Z,7.90
2022-11-17T14:35:33.242Z,7.90
2022-11-17T14:38:03.261Z,7.80
2022-11-17T14:40:29.896Z,7.80
2022-11-17T14:42:56.562Z,7.80
2022-11-17T14:45:23.177Z,7.90
2022-11-17T14:47:49.818Z,7.80
2022-11-17T14:50:16.943Z,7.80
2022-11-17T14:52:43.838Z,7.90
2022-11-17T14:55:11.018Z,7.80
2022-11-17T14:57:37.661Z,7.80
2022-11-17T15:00:04.877Z,7.90
2022-11-17T15:02:32.175Z,7.90
2022-11-17T15:05:00.181Z,7.60
2022-11-17T15:07:27.107Z,7.80
2022-11-17T15:09:53.847Z,7.90
2022-11-17T15:12:20.573Z,7.80
2022-11-17T15:14:47.418Z,7.70
2022-11-17T15:17:14.796Z,7.80
2022-11-17T15:19:41.665Z,7.80
2022-11-17T15:22:08.382Z,7.80
2022-11-17T15:24:35.053Z,7.90
2022-11-17T15:27:01.742Z,7.80
2022-11-17T15:29:31.312Z,7.90
2022-11-17T15:31:58.158Z,7.90
2022-11-17T15:34:27.160Z,7.80
2022-11-17T15:36:54.289Z,7.80
2022-11-17T15:39:20.968Z,7.80
2022-11-17T15:41:48.839Z,7.90
2022-11-17T15:44:15.766Z,7.80
2022-11-17T15:46:47.102Z,7.80
2022-11-17T15:49:14.471Z,7.80
2022-11-17T15:51:41.472Z,7.70
2022-11-17T15:54:16.650Z,7.60
2022-11-17T15:56:46.519Z,7.70
2022-11-17T15:59:14.481Z,7.60
2022-11-17T16:01:41.537Z,7.60
2022-11-17T16:04:11.979Z,7.60
2022-11-17T16:06:39.298Z,7.60
2022-11-17T16:09:06.642Z,7.60
2022-11-17T16:11:33.509Z,7.60
2022-11-17T16:14:00.196Z,7.70
2022-11-17T16:16:27.745Z,7.70
2022-11-17T16:18:54.593Z,7.70
2022-11-17T16:21:21.297Z,7.70
2022-11-17T16:23:48.690Z,7.60
2022-11-17T16:26:15.864Z,7.50
2022-11-17T16:28:42.574Z,7.50
2022-11-17T16:31:13.704Z,7.60
2022-11-17T16:33:40.356Z,7.60
2022-11-17T16:36:07.293Z,7.60
2022-11-17T16:38:33.943Z,7.50
2022-11-17T16:41:01.650Z,7.50
2022-11-17T16:43:28.286Z,7.50
2022-11-17T16:45:54.894Z,7.50
2022-11-17T16:48:21.543Z,7.50
2022-11-17T16:50:48.316Z,7.50
2022-11-17T16:53:14.963Z,7.50
2022-11-17T16:55:43.624Z,7.50
2022-11-17T16:58:10.358Z,7.50
2022-11-17T17:00:37.056Z,7.50
2022-11-17T17:03:03.963Z,7.60
2022-11-17T17:05:30.768Z,6.80
2022-11-17T17:07:57.436Z,7.50
2022-11-17T17:10:24.307Z,7.60
2022-11-17T17:12:50.987Z,7.40
2022-11-17T17:15:17.665Z,7.40
2022-11-17T17:17:44.301Z,7.40
2022-11-17T17:20:17.095Z,7.40
2022-11-17T17:22:44.134Z,7.40
2022-11-17T17:25:10.765Z,7.40
2022-11-17T17:27:37.383Z,7.50
2022-11-17T17:30:04.630Z,7.50
2022-11-17T17:32:31.317Z,7.50
2022-11-17T17:34:58.231Z,7.50
2022-11-17T17:37:24.847Z,7.50
2022-11-17T17:39:51.497Z,7.50
2022-11-17T17:42:18.172Z,7.60
2022-11-17T17:44:44.809Z,7.60
2022-11-17T17:47:11.500Z,7.60
2022-11-17T17:49:38.127Z,7.60
2022-11-17T17:52:10.956Z,7.70
2022-11-17T17:54:40.231Z,7.70
2022-11-17T17:57:06.900Z,7.80
2022-11-17T17:59:33.804Z,7.70
2022-11-17T18:02:03.556Z,7.70
2022-11-17T18:04:30.432Z,7.70
2022-11-17T18:06:57.515Z,6.80
2022-11-17T18:09:24.206Z,7.80
2022-11-17T18:11:51.416Z,7.80
2022-11-17T18:14:21.046Z,7.80
2022-11-17T18:16:48.035Z,7.80
2022-11-17T18:19:15.276Z,7.80
2022-11-17T18:21:42.620Z,7.80
2022-11-17T18:24:09.457Z,7.80
2022-11-17T18:26:36.098Z,7.70
2022-11-17T18:29:04.996Z,7.80
2022-11-17T18:31:32.316Z,7.60
2022-11-17T18:33:59.877Z,7.70
2022-11-17T18:36:26.609Z,7.60
2022-11-17T18:38:53.412Z,7.60
2022-11-17T18:41:20.616Z,7.60
2022-11-17T18:43:47.282Z,7.70
2022-11-17T18:46:14.970Z,7.60
2022-11-17T18:48:42.519Z,7.20
2022-11-17T18:51:25.561Z,7.40
2022-11-17T18:53:53.131Z,7.40
2022-11-17T18:56:21.224Z,7.40
2022-11-17T18:58:47.890Z,7.50
2022-11-17T19:01:19.489Z,7.40
2022-11-17T19:03:47.482Z,7.40
2022-11-17T19:06:14.408Z,7.40
2022-11-17T19:08:41.504Z,7.40
2022-11-17T19:11:08.473Z,7.40
2022-11-17T19:13:35.998Z,7.30
2022-11-17T19:16:12.717Z,7.30
2022-11-17T19:18:39.648Z,7.30
2022-11-17T19:21:06.934Z,7.30
2022-11-17T19:23:34.345Z,7.20
2022-11-17T19:26:08.133Z,7.30
2022-11-17T19:28:35.115Z,7.30
2022-11-17T19:31:02.548Z,7.20
2022-11-17T19:33:30.234Z,7.10
2022-11-17T19:35:56.887Z,7.10
2022-11-17T19:38:23.552Z,7.00
2022-11-17T19:40:50.266Z,7.00
2022-11-17T19:43:19.177Z,6.90
2022-11-17T19:45:45.942Z,6.80
2022-11-17T19:48:12.695Z,6.80
2022-11-17T19:50:39.449Z,6.80
2022-11-17T19:53:06.110Z,6.80
2022-11-17T19:55:33.499Z,6.80
2022-11-17T19:58:00.128Z,6.80
2022-11-17T20:00:26.856Z,6.70
2022-11-17T20:02:53.525Z,6.70
2022-11-17T20:05:20.179Z,6.70
2022-11-17T20:07:46.834Z,6.70
2022-11-17T20:10:13.522Z,6.70
2022-11-17T20:12:42.610Z,6.60
2022-11-17T20:15:27.065Z,6.60
2022-11-17T20:17:56.361Z,6.60
2022-11-17T20:20:22.976Z,6.60
2022-11-17T20:22:49.906Z,6.50
2022-11-17T20:25:16.594Z,6.60
2022-11-17T20:27:45.602Z,6.50
2022-11-17T20:30:15.361Z,6.50
2022-11-17T20:32:42.612Z,6.00
2022-11-17T20:35:09.301Z,6.50
2022-11-17T20:37:37.984Z,6.50
2022-11-17T20:40:04.907Z,6.50
2022-11-17T20:42:31.550Z,6.50
2022-11-17T20:44:58.173Z,6.50
2022-11-17T20:47:27.562Z,6.60
2022-11-17T20:49:54.855Z,6.50
2022-11-17T20:52:21.470Z,6.50
2022-11-17T20:54:48.136Z,6.50
2022-11-17T20:57:14.783Z,6.40
2022-11-17T20:59:41.502Z,6.40
2022-11-17T21:02:08.974Z,6.40
2022-11-17T21:04:35.659Z,6.30
2022-11-17T21:07:06.437Z,6.30
2022-11-17T21:09:33.465Z,6.20
2022-11-17T21:12:00.367Z,6.20
2022-11-17T21:14:27.208Z,6.20
2022-11-17T21:16:54.417Z,6.20
2022-11-17T21:19:21.350Z,6.20
2022-11-17T21:21:49.171Z,6.20
2022-11-17T21:24:15.839Z,6.20
2022-11-17T21:26:42.528Z,6.20
2022-11-17T21:29:09.190Z,6.10
2022-11-17T21:31:36.000Z,6.00
2022-11-17T21:34:03.387Z,6.00
2022-11-17T21:36:30.397Z,6.00
2022-11-17T21:38:57.224Z,6.00
2022-11-17T21:41:24.880Z,5.90
2022-11-17T21:43:54.923Z,6.00
2022-11-17T21:46:22.891Z,5.90
2022-11-17T21:48:50.163Z,5.90
2022-11-17T21:51:16.979Z,5.90
2022-11-17T21:53:44.433Z,5.90
2022-11-17T21:56:11.525Z,5.90
2022-11-17T21:58:38.500Z,5.90
2022-11-17T22:01:09.396Z,5.90
2022-11-17T22:03:36.314Z,5.90
2022-11-17T22:06:08.645Z,6.00
2022-11-17T22:08:39.209Z,6.00
2022-11-17T22:11:06.857Z,6.00
2022-11-17T22:13:33.651Z,6.10
2022-11-17T22:16:08.626Z,6.10
2022-11-17T22:18:36.597Z,6.10
2022-11-17T22:21:06.878Z,6.10
2022-11-17T22:23:33.612Z,6.10
2022-11-17T22:26:00.938Z,6.10
2022-11-17T22:28:27.737Z,6.10
2022-11-17T22:30:54.408Z,6.10
2022-11-17T22:33:21.334Z,6.10
2022-11-17T22:35:48.067Z,6.10
2022-11-17T22:38:14.823Z,6.10
2022-11-17T22:40:41.641Z,6.10
2022-11-17T22:43:14.426Z,6.20
2022-11-17T22:45:41.770Z,6.20
2022-11-17T22:48:08.888Z,6.20
2022-11-17T22:50:35.997Z,6.20
2022-11-17T22:53:02.860Z,6.20
2022-11-17T22:55:29.679Z,6.30
2022-11-17T22:57:56.357Z,6.20
2022-11-17T23:00:23.137Z,6.30
2022-11-17T23:02:49.862Z,6.20
2022-11-17T23:05:16.497Z,6.20
2022-11-17T23:07:43.322Z,6.20
2022-11-17T23:10:10.190Z,6.20
2022-11-17T23:12:36.813Z,6.20
2022-11-17T23:15:03.571Z,6.20
2022-11-17T23:17:30.236Z,6.20
2022-11-17T23:19:56.869Z,6.10
2022-11-17T23:22:23.524Z,6.10
2022-11-17T23:24:50.146Z,6.10
2022-11-17T23:27:16.806Z,6.10
2022-11-17T23:29:43.449Z,6.10
2022-11-17T23:32:10.129Z,6.10
2022-11-17T23:34:36.802Z,6.10
2022-11-17T23:37:04.065Z,6.20
2022-11-17T23:39:30.921Z,6.30
2022-11-17T23:41:57.562Z,6.30
2022-11-17T23:44:24.200Z,6.30
2022-11-17T23:46:50.863Z,6.40
2022-11-17T23:49:17.666Z,6.40
2022-11-17T23:51:44.484Z,6.40
2022-11-17T23:54:11.473Z,6.40
2022-11-17T23:56:38.084Z,6.40
2022-11-17T23:59:04.716Z,6.30
